sensor_id;sensor_type;location;lat;lon;timestamp;P1;durP1;ratioP1;P2;durP2;ratioP2
18754;SDS011;35061;47.664;9.166;2023-02-18T00:01:20;3.05;;;2.50;;
18754;SDS011;35061;47.664;9.166;2023-02-18T00:03:49;3.12;;;2.37;;
18754;SDS011;35061;47.664;9.166;2023-02-18T00:09:00;2.67;;;2.35;;
18754;SDS011;35061;47.664;9.166;2023-02-18T00:11:30;3.08;;;2.60;;
18754;SDS011;35061;47.664;9.166;2023-02-18T00:14:00;3.40;;;2.97;;
18754;SDS011;35061;47.664;9.166;2023-02-18T00:16:29;2.62;;;2.03;;
18754;SDS011;35061;47.664;9.166;2023-02-18T00:18:59;4.45;;;2.72;;
18754;SDS011;35061;47.664;9.166;2023-02-18T00:21:31;3.37;;;3.08;;
18754;SDS011;35061;47.664;9.166;2023-02-18T00:24:00;4.18;;;2.95;;
18754;SDS011;35061;47.664;9.166;2023-02-18T00:26:28;3.58;;;3.00;;
18754;SDS011;35061;47.664;9.166;2023-02-18T00:28:56;3.67;;;2.40;;
18754;SDS011;35061;47.664;9.166;2023-02-18T00:31:28;3.53;;;2.90;;
18754;SDS011;35061;47.664;9.166;2023-02-18T00:33:58;3.37;;;3.08;;
18754;SDS011;35061;47.664;9.166;2023-02-18T00:36:26;3.08;;;2.78;;
18754;SDS011;35061;47.664;9.166;2023-02-18T00:38:59;3.83;;;2.60;;
18754;SDS011;35061;47.664;9.166;2023-02-18T00:41:29;4.20;;;2.95;;
18754;SDS011;35061;47.664;9.166;2023-02-18T00:43:58;4.00;;;2.97;;
18754;SDS011;35061;47.664;9.166;2023-02-18T00:46:26;2.75;;;2.55;;
18754;SDS011;35061;47.664;9.166;2023-02-18T00:48:55;4.80;;;2.58;;
18754;SDS011;35061;47.664;9.166;2023-02-18T00:51:23;3.95;;;2.80;;
18754;SDS011;35061;47.664;9.166;2023-02-18T00:53:51;2.92;;;2.62;;
18754;SDS011;35061;47.664;9.166;2023-02-18T00:56:20;2.75;;;2.10;;
18754;SDS011;35061;47.664;9.166;2023-02-18T00:58:48;2.42;;;2.22;;
18754;SDS011;35061;47.664;9.166;2023-02-18T01:01:17;2.15;;;1.95;;
18754;SDS011;35061;47.664;9.166;2023-02-18T01:03:45;2.08;;;1.87;;
18754;SDS011;35061;47.664;9.166;2023-02-18T01:06:13;2.33;;;2.08;;
18754;SDS011;35061;47.664;9.166;2023-02-18T01:08:41;3.03;;;2.28;;
18754;SDS011;35061;47.664;9.166;2023-02-18T01:11:09;2.40;;;1.90;;
18754;SDS011;35061;47.664;9.166;2023-02-18T01:13:38;2.17;;;1.90;;
18754;SDS011;35061;47.664;9.166;2023-02-18T01:16:07;2.50;;;2.30;;
18754;SDS011;35061;47.664;9.166;2023-02-18T01:18:36;2.70;;;2.30;;
18754;SDS011;35061;47.664;9.166;2023-02-18T01:21:05;2.67;;;2.47;;
18754;SDS011;35061;47.664;9.166;2023-02-18T01:23:37;2.85;;;1.80;;
18754;SDS011;35061;47.664;9.166;2023-02-18T01:26:06;2.97;;;2.15;;
18754;SDS011;35061;47.664;9.166;2023-02-18T01:28:35;2.70;;;2.40;;
18754;SDS011;35061;47.664;9.166;2023-02-18T01:31:07;2.47;;;2.28;;
18754;SDS011;35061;47.664;9.166;2023-02-18T01:33:39;2.92;;;2.30;;
18754;SDS011;35061;47.664;9.166;2023-02-18T01:36:07;3.30;;;2.50;;
18754;SDS011;35061;47.664;9.166;2023-02-18T01:38:36;2.62;;;2.42;;
18754;SDS011;35061;47.664;9.166;2023-02-18T01:41:04;2.80;;;2.58;;
18754;SDS011;35061;47.664;9.166;2023-02-18T01:43:33;2.37;;;2.17;;
18754;SDS011;35061;47.664;9.166;2023-02-18T01:46:11;3.12;;;2.50;;
18754;SDS011;35061;47.664;9.166;2023-02-18T01:48:43;3.50;;;2.25;;
18754;SDS011;35061;47.664;9.166;2023-02-18T01:51:14;2.60;;;2.40;;
18754;SDS011;35061;47.664;9.166;2023-02-18T01:53:59;3.72;;;2.58;;
18754;SDS011;35061;47.664;9.166;2023-02-18T01:56:44;2.20;;;2.00;;
18754;SDS011;35061;47.664;9.166;2023-02-18T01:59:17;2.97;;;2.42;;
18754;SDS011;35061;47.664;9.166;2023-02-18T02:01:50;2.37;;;2.17;;
18754;SDS011;35061;47.664;9.166;2023-02-18T02:04:19;4.18;;;2.75;;
18754;SDS011;35061;47.664;9.166;2023-02-18T02:06:48;4.18;;;2.78;;
18754;SDS011;35061;47.664;9.166;2023-02-18T02:09:16;3.25;;;2.55;;
18754;SDS011;35061;47.664;9.166;2023-02-18T02:34:34;4.45;;;3.12;;
18754;SDS011;35061;47.664;9.166;2023-02-18T02:37:35;3.00;;;2.70;;
18754;SDS011;35061;47.664;9.166;2023-02-18T02:43:18;2.90;;;2.45;;
18754;SDS011;35061;47.664;9.166;2023-02-18T02:51:22;2.92;;;2.62;;
18754;SDS011;35061;47.664;9.166;2023-02-18T02:53:54;3.03;;;2.70;;
18754;SDS011;35061;47.664;9.166;2023-02-18T02:56:34;2.53;;;2.33;;
18754;SDS011;35061;47.664;9.166;2023-02-18T02:59:03;2.62;;;2.35;;
18754;SDS011;35061;47.664;9.166;2023-02-18T03:16:09;3.05;;;2.28;;
18754;SDS011;35061;47.664;9.166;2023-02-18T03:21:29;2.33;;;2.12;;
18754;SDS011;35061;47.664;9.166;2023-02-18T03:24:06;2.10;;;1.95;;
18754;SDS011;35061;47.664;9.166;2023-02-18T03:26:41;2.20;;;1.87;;
18754;SDS011;35061;47.664;9.166;2023-02-18T03:29:13;2.67;;;2.22;;
18754;SDS011;35061;47.664;9.166;2023-02-18T03:31:44;3.58;;;2.20;;
18754;SDS011;35061;47.664;9.166;2023-02-18T03:34:16;1.98;;;1.80;;
18754;SDS011;35061;47.664;9.166;2023-02-18T03:36:50;3.40;;;2.28;;
18754;SDS011;35061;47.664;9.166;2023-02-18T03:39:20;1.92;;;1.73;;
18754;SDS011;35061;47.664;9.166;2023-02-18T03:41:51;2.92;;;2.22;;
18754;SDS011;35061;47.664;9.166;2023-02-18T03:44:19;3.53;;;2.12;;
18754;SDS011;35061;47.664;9.166;2023-02-18T03:46:47;2.28;;;2.00;;
18754;SDS011;35061;47.664;9.166;2023-02-18T03:49:15;3.12;;;2.10;;
18754;SDS011;35061;47.664;9.166;2023-02-18T03:51:43;1.70;;;1.60;;
18754;SDS011;35061;47.664;9.166;2023-02-18T03:54:11;2.00;;;1.80;;
18754;SDS011;35061;47.664;9.166;2023-02-18T03:56:41;1.87;;;1.70;;
18754;SDS011;35061;47.664;9.166;2023-02-18T03:59:09;2.78;;;2.12;;
18754;SDS011;35061;47.664;9.166;2023-02-18T04:01:38;3.47;;;1.62;;
18754;SDS011;35061;47.664;9.166;2023-02-18T04:04:06;2.53;;;2.33;;
18754;SDS011;35061;47.664;9.166;2023-02-18T04:06:34;2.10;;;1.90;;
18754;SDS011;35061;47.664;9.166;2023-02-18T04:09:02;2.65;;;1.87;;
18754;SDS011;35061;47.664;9.166;2023-02-18T04:11:35;1.87;;;1.67;;
18754;SDS011;35061;47.664;9.166;2023-02-18T04:14:05;2.12;;;1.83;;
18754;SDS011;35061;47.664;9.166;2023-02-18T04:16:33;2.17;;;1.90;;
18754;SDS011;35061;47.664;9.166;2023-02-18T04:19:01;2.12;;;2.03;;
18754;SDS011;35061;47.664;9.166;2023-02-18T04:21:29;2.00;;;1.80;;
18754;SDS011;35061;47.664;9.166;2023-02-18T04:23:57;2.58;;;2.37;;
18754;SDS011;35061;47.664;9.166;2023-02-18T04:26:24;2.17;;;1.92;;
18754;SDS011;35061;47.664;9.166;2023-02-18T04:28:52;3.60;;;1.95;;
18754;SDS011;35061;47.664;9.166;2023-02-18T04:31:20;2.62;;;2.10;;
18754;SDS011;35061;47.664;9.166;2023-02-18T04:33:48;2.33;;;2.12;;
18754;SDS011;35061;47.664;9.166;2023-02-18T04:36:15;3.05;;;2.30;;
18754;SDS011;35061;47.664;9.166;2023-02-18T04:38:43;2.00;;;1.80;;
18754;SDS011;35061;47.664;9.166;2023-02-18T04:41:11;4.25;;;2.17;;
18754;SDS011;35061;47.664;9.166;2023-02-18T04:43:39;2.28;;;2.08;;
18754;SDS011;35061;47.664;9.166;2023-02-18T04:46:06;3.80;;;2.15;;
18754;SDS011;35061;47.664;9.166;2023-02-18T04:48:34;2.78;;;2.10;;
18754;SDS011;35061;47.664;9.166;2023-02-18T04:51:02;4.43;;;2.25;;
18754;SDS011;35061;47.664;9.166;2023-02-18T04:53:30;1.70;;;1.60;;
18754;SDS011;35061;47.664;9.166;2023-02-18T04:55:58;2.30;;;2.10;;
18754;SDS011;35061;47.664;9.166;2023-02-18T04:58:26;2.20;;;1.87;;
18754;SDS011;35061;47.664;9.166;2023-02-18T05:00:57;2.42;;;2.22;;
18754;SDS011;35061;47.664;9.166;2023-02-18T05:03:27;2.35;;;2.15;;
18754;SDS011;35061;47.664;9.166;2023-02-18T05:05:56;2.17;;;1.98;;
18754;SDS011;35061;47.664;9.166;2023-02-18T05:08:25;2.17;;;1.90;;
18754;SDS011;35061;47.664;9.166;2023-02-18T05:10:52;3.20;;;2.45;;
18754;SDS011;35061;47.664;9.166;2023-02-18T05:13:20;2.60;;;2.40;;
18754;SDS011;35061;47.664;9.166;2023-02-18T05:15:49;2.50;;;1.70;;
18754;SDS011;35061;47.664;9.166;2023-02-18T05:18:17;3.53;;;2.08;;
18754;SDS011;35061;47.664;9.166;2023-02-18T05:20:44;2.72;;;1.77;;
18754;SDS011;35061;47.664;9.166;2023-02-18T05:23:12;2.25;;;1.90;;
18754;SDS011;35061;47.664;9.166;2023-02-18T05:25:40;2.12;;;1.92;;
18754;SDS011;35061;47.664;9.166;2023-02-18T05:28:08;3.17;;;1.80;;
18754;SDS011;35061;47.664;9.166;2023-02-18T05:30:36;4.20;;;3.20;;
18754;SDS011;35061;47.664;9.166;2023-02-18T05:33:04;2.50;;;2.10;;
18754;SDS011;35061;47.664;9.166;2023-02-18T05:35:31;2.72;;;1.90;;
18754;SDS011;35061;47.664;9.166;2023-02-18T05:37:59;2.25;;;2.05;;
18754;SDS011;35061;47.664;9.166;2023-02-18T05:40:27;2.97;;;2.00;;
18754;SDS011;35061;47.664;9.166;2023-02-18T05:42:55;2.58;;;2.08;;
18754;SDS011;35061;47.664;9.166;2023-02-18T05:45:23;4.28;;;2.17;;
18754;SDS011;35061;47.664;9.166;2023-02-18T05:47:50;2.95;;;2.47;;
18754;SDS011;35061;47.664;9.166;2023-02-18T05:50:18;2.30;;;2.10;;
18754;SDS011;35061;47.664;9.166;2023-02-18T05:52:46;2.62;;;2.17;;
18754;SDS011;35061;47.664;9.166;2023-02-18T05:55:14;3.70;;;2.12;;
18754;SDS011;35061;47.664;9.166;2023-02-18T05:57:41;3.10;;;2.40;;
18754;SDS011;35061;47.664;9.166;2023-02-18T06:00:09;3.08;;;2.60;;
18754;SDS011;35061;47.664;9.166;2023-02-18T06:02:37;3.60;;;2.22;;
18754;SDS011;35061;47.664;9.166;2023-02-18T06:05:06;4.18;;;2.42;;
18754;SDS011;35061;47.664;9.166;2023-02-18T06:07:34;2.80;;;2.37;;
18754;SDS011;35061;47.664;9.166;2023-02-18T06:10:02;2.50;;;2.30;;
18754;SDS011;35061;47.664;9.166;2023-02-18T06:12:30;3.65;;;2.40;;
18754;SDS011;35061;47.664;9.166;2023-02-18T06:14:58;3.30;;;2.22;;
18754;SDS011;35061;47.664;9.166;2023-02-18T06:17:26;3.20;;;2.60;;
18754;SDS011;35061;47.664;9.166;2023-02-18T06:19:54;2.55;;;2.35;;
18754;SDS011;35061;47.664;9.166;2023-02-18T06:22:21;3.40;;;2.40;;
18754;SDS011;35061;47.664;9.166;2023-02-18T06:24:49;5.10;;;2.65;;
18754;SDS011;35061;47.664;9.166;2023-02-18T06:27:17;2.20;;;2.00;;
18754;SDS011;35061;47.664;9.166;2023-02-18T06:29:44;3.92;;;2.72;;
18754;SDS011;35061;47.664;9.166;2023-02-18T06:32:12;2.55;;;2.35;;
18754;SDS011;35061;47.664;9.166;2023-02-18T06:34:40;2.50;;;2.10;;
18754;SDS011;35061;47.664;9.166;2023-02-18T06:37:08;2.40;;;2.05;;
18754;SDS011;35061;47.664;9.166;2023-02-18T06:39:35;2.70;;;2.25;;
18754;SDS011;35061;47.664;9.166;2023-02-18T06:42:04;3.42;;;2.22;;
18754;SDS011;35061;47.664;9.166;2023-02-18T06:44:32;2.37;;;2.00;;
18754;SDS011;35061;47.664;9.166;2023-02-18T06:47:03;2.33;;;1.70;;
18754;SDS011;35061;47.664;9.166;2023-02-18T06:49:30;2.28;;;1.80;;
18754;SDS011;35061;47.664;9.166;2023-02-18T06:51:58;3.17;;;2.03;;
18754;SDS011;35061;47.664;9.166;2023-02-18T06:54:25;2.03;;;1.75;;
18754;SDS011;35061;47.664;9.166;2023-02-18T06:56:53;2.00;;;1.80;;
18754;SDS011;35061;47.664;9.166;2023-02-18T06:59:21;2.95;;;2.05;;
18754;SDS011;35061;47.664;9.166;2023-02-18T07:01:49;3.25;;;1.90;;
18754;SDS011;35061;47.664;9.166;2023-02-18T07:04:16;2.15;;;1.95;;
18754;SDS011;35061;47.664;9.166;2023-02-18T07:06:44;3.72;;;1.80;;
18754;SDS011;35061;47.664;9.166;2023-02-18T07:09:12;3.05;;;2.03;;
18754;SDS011;35061;47.664;9.166;2023-02-18T07:11:39;2.47;;;2.12;;
18754;SDS011;35061;47.664;9.166;2023-02-18T07:14:07;2.30;;;2.10;;
18754;SDS011;35061;47.664;9.166;2023-02-18T07:16:35;2.87;;;2.30;;
18754;SDS011;35061;47.664;9.166;2023-02-18T07:19:03;2.15;;;1.87;;
18754;SDS011;35061;47.664;9.166;2023-02-18T07:21:30;2.53;;;1.90;;
18754;SDS011;35061;47.664;9.166;2023-02-18T07:23:58;2.67;;;2.10;;
18754;SDS011;35061;47.664;9.166;2023-02-18T07:26:26;2.30;;;2.03;;
18754;SDS011;35061;47.664;9.166;2023-02-18T07:28:54;2.55;;;1.98;;
18754;SDS011;35061;47.664;9.166;2023-02-18T07:31:21;3.75;;;2.03;;
18754;SDS011;35061;47.664;9.166;2023-02-18T07:33:49;2.42;;;2.08;;
18754;SDS011;35061;47.664;9.166;2023-02-18T07:36:17;4.00;;;1.98;;
18754;SDS011;35061;47.664;9.166;2023-02-18T07:38:45;3.12;;;2.05;;
18754;SDS011;35061;47.664;9.166;2023-02-18T07:41:16;2.05;;;1.85;;
18754;SDS011;35061;47.664;9.166;2023-02-18T07:43:47;3.20;;;2.05;;
18754;SDS011;35061;47.664;9.166;2023-02-18T07:46:15;2.45;;;1.98;;
18754;SDS011;35061;47.664;9.166;2023-02-18T07:48:43;3.17;;;1.90;;
18754;SDS011;35061;47.664;9.166;2023-02-18T07:51:11;2.92;;;2.00;;
18754;SDS011;35061;47.664;9.166;2023-02-18T07:53:39;2.33;;;2.05;;
18754;SDS011;35061;47.664;9.166;2023-02-18T07:56:08;2.75;;;2.12;;
18754;SDS011;35061;47.664;9.166;2023-02-18T07:58:36;2.45;;;2.10;;
18754;SDS011;35061;47.664;9.166;2023-02-18T08:01:09;2.25;;;1.80;;
18754;SDS011;35061;47.664;9.166;2023-02-18T08:03:41;2.10;;;1.80;;
18754;SDS011;35061;47.664;9.166;2023-02-18T08:06:18;3.50;;;1.80;;
18754;SDS011;35061;47.664;9.166;2023-02-18T08:08:48;2.47;;;1.92;;
18754;SDS011;35061;47.664;9.166;2023-02-18T08:11:16;2.28;;;1.83;;
18754;SDS011;35061;47.664;9.166;2023-02-18T08:13:45;1.85;;;1.70;;
18754;SDS011;35061;47.664;9.166;2023-02-18T08:16:15;2.70;;;1.70;;
18754;SDS011;35061;47.664;9.166;2023-02-18T08:18:44;1.87;;;1.75;;
18754;SDS011;35061;47.664;9.166;2023-02-18T08:21:14;2.45;;;2.00;;
18754;SDS011;35061;47.664;9.166;2023-02-18T08:23:43;2.25;;;1.80;;
18754;SDS011;35061;47.664;9.166;2023-02-18T08:26:11;1.98;;;1.70;;
18754;SDS011;35061;47.664;9.166;2023-02-18T08:28:40;2.62;;;1.75;;
18754;SDS011;35061;47.664;9.166;2023-02-18T08:31:12;3.83;;;1.58;;
18754;SDS011;35061;47.664;9.166;2023-02-18T08:33:43;2.58;;;1.62;;
18754;SDS011;35061;47.664;9.166;2023-02-18T08:36:11;1.65;;;1.50;;
18754;SDS011;35061;47.664;9.166;2023-02-18T08:38:38;1.90;;;1.50;;
18754;SDS011;35061;47.664;9.166;2023-02-18T08:41:07;1.60;;;1.50;;
18754;SDS011;35061;47.664;9.166;2023-02-18T08:43:36;2.17;;;1.62;;
18754;SDS011;35061;47.664;9.166;2023-02-18T08:46:04;2.25;;;1.55;;
18754;SDS011;35061;47.664;9.166;2023-02-18T08:48:32;2.62;;;1.40;;
18754;SDS011;35061;47.664;9.166;2023-02-18T08:51:08;1.65;;;1.40;;
18754;SDS011;35061;47.664;9.166;2023-02-18T08:53:38;1.95;;;1.50;;
18754;SDS011;35061;47.664;9.166;2023-02-18T08:56:09;1.98;;;1.70;;
18754;SDS011;35061;47.664;9.166;2023-02-18T08:58:37;2.47;;;1.55;;
18754;SDS011;35061;47.664;9.166;2023-02-18T09:01:05;2.22;;;1.50;;
18754;SDS011;35061;47.664;9.166;2023-02-18T09:03:35;2.50;;;1.60;;
18754;SDS011;35061;47.664;9.166;2023-02-18T09:06:04;1.40;;;1.30;;
18754;SDS011;35061;47.664;9.166;2023-02-18T09:08:32;1.77;;;1.60;;
18754;SDS011;35061;47.664;9.166;2023-02-18T09:11:01;3.58;;;1.50;;
18754;SDS011;35061;47.664;9.166;2023-02-18T09:13:34;1.50;;;1.40;;
18754;SDS011;35061;47.664;9.166;2023-02-18T09:16:06;3.22;;;1.48;;
18754;SDS011;35061;47.664;9.166;2023-02-18T09:18:37;1.80;;;1.37;;
18754;SDS011;35061;47.664;9.166;2023-02-18T09:21:06;1.77;;;1.30;;
18754;SDS011;35061;47.664;9.166;2023-02-18T09:23:36;2.08;;;1.62;;
18754;SDS011;35061;47.664;9.166;2023-02-18T09:26:04;3.60;;;1.45;;
18754;SDS011;35061;47.664;9.166;2023-02-18T09:28:34;2.15;;;1.17;;
18754;SDS011;35061;47.664;9.166;2023-02-18T09:31:06;2.83;;;1.40;;
18754;SDS011;35061;47.664;9.166;2023-02-18T09:33:40;3.25;;;1.20;;
18754;SDS011;35061;47.664;9.166;2023-02-18T09:36:11;1.48;;;1.37;;
18754;SDS011;35061;47.664;9.166;2023-02-18T09:38:39;1.60;;;1.33;;
18754;SDS011;35061;47.664;9.166;2023-02-18T09:41:27;1.30;;;1.20;;
18754;SDS011;35061;47.664;9.166;2023-02-18T09:43:58;1.08;;;1.00;;
18754;SDS011;35061;47.664;9.166;2023-02-18T09:46:32;1.35;;;1.23;;
18754;SDS011;35061;47.664;9.166;2023-02-18T09:49:26;1.60;;;0.98;;
18754;SDS011;35061;47.664;9.166;2023-02-18T09:51:55;1.40;;;1.30;;
18754;SDS011;35061;47.664;9.166;2023-02-18T09:54:28;3.33;;;1.40;;
18754;SDS011;35061;47.664;9.166;2023-02-18T09:56:56;3.20;;;1.15;;
18754;SDS011;35061;47.664;9.166;2023-02-18T09:59:26;2.60;;;1.10;;
18754;SDS011;35061;47.664;9.166;2023-02-18T10:01:54;2.08;;;1.20;;
18754;SDS011;35061;47.664;9.166;2023-02-18T10:04:27;1.10;;;0.95;;
18754;SDS011;35061;47.664;9.166;2023-02-18T10:06:58;2.15;;;1.40;;
18754;SDS011;35061;47.664;9.166;2023-02-18T10:09:36;2.05;;;1.00;;
18754;SDS011;35061;47.664;9.166;2023-02-18T10:12:14;1.20;;;1.00;;
18754;SDS011;35061;47.664;9.166;2023-02-18T10:14:49;2.47;;;1.15;;
18754;SDS011;35061;47.664;9.166;2023-02-18T10:17:24;1.42;;;1.10;;
18754;SDS011;35061;47.664;9.166;2023-02-18T10:19:56;1.00;;;0.75;;
18754;SDS011;35061;47.664;9.166;2023-02-18T10:22:28;1.25;;;1.10;;
18754;SDS011;35061;47.664;9.166;2023-02-18T10:24:57;1.73;;;1.27;;
18754;SDS011;35061;47.664;9.166;2023-02-18T10:27:31;2.28;;;0.95;;
18754;SDS011;35061;47.664;9.166;2023-02-18T10:30:16;1.08;;;1.00;;
18754;SDS011;35061;47.664;9.166;2023-02-18T10:32:45;1.48;;;0.90;;
18754;SDS011;35061;47.664;9.166;2023-02-18T10:52:21;1.42;;;0.90;;
18754;SDS011;35061;47.664;9.166;2023-02-18T10:55:03;1.55;;;1.00;;
18754;SDS011;35061;47.664;9.166;2023-02-18T10:57:33;1.15;;;1.02;;
18754;SDS011;35061;47.664;9.166;2023-02-18T11:00:45;1.42;;;0.95;;
18754;SDS011;35061;47.664;9.166;2023-02-18T11:03:14;1.12;;;1.00;;
18754;SDS011;35061;47.664;9.166;2023-02-18T11:05:45;1.23;;;1.20;;
18754;SDS011;35061;47.664;9.166;2023-02-18T11:08:17;1.30;;;1.02;;
18754;SDS011;35061;47.664;9.166;2023-02-18T11:10:55;4.12;;;1.40;;
18754;SDS011;35061;47.664;9.166;2023-02-18T11:13:28;2.05;;;1.20;;
18754;SDS011;35061;47.664;9.166;2023-02-18T11:16:08;1.08;;;0.98;;
18754;SDS011;35061;47.664;9.166;2023-02-18T11:18:39;1.50;;;0.90;;
18754;SDS011;35061;47.664;9.166;2023-02-18T11:24:14;1.45;;;1.20;;
18754;SDS011;35061;47.664;9.166;2023-02-18T11:26:42;1.20;;;1.10;;
18754;SDS011;35061;47.664;9.166;2023-02-18T11:29:14;1.40;;;1.10;;
18754;SDS011;35061;47.664;9.166;2023-02-18T11:31:48;1.73;;;1.12;;
18754;SDS011;35061;47.664;9.166;2023-02-18T11:34:19;2.33;;;1.20;;
18754;SDS011;35061;47.664;9.166;2023-02-18T11:36:49;2.00;;;1.20;;
18754;SDS011;35061;47.664;9.166;2023-02-18T11:39:25;2.95;;;1.33;;
18754;SDS011;35061;47.664;9.166;2023-02-18T11:41:56;2.80;;;1.05;;
18754;SDS011;35061;47.664;9.166;2023-02-18T11:49:42;1.02;;;1.00;;
18754;SDS011;35061;47.664;9.166;2023-02-18T11:52:18;1.37;;;1.10;;
18754;SDS011;35061;47.664;9.166;2023-02-18T11:57:33;0.90;;;0.82;;
18754;SDS011;35061;47.664;9.166;2023-02-18T12:00:04;1.12;;;1.00;;
18754;SDS011;35061;47.664;9.166;2023-02-18T12:02:48;1.30;;;1.10;;
18754;SDS011;35061;47.664;9.166;2023-02-18T12:05:21;1.25;;;1.00;;
18754;SDS011;35061;47.664;9.166;2023-02-18T12:07:51;1.12;;;1.02;;
18754;SDS011;35061;47.664;9.166;2023-02-18T12:10:27;1.12;;;0.90;;
18754;SDS011;35061;47.664;9.166;2023-02-18T12:13:02;0.90;;;0.80;;
18754;SDS011;35061;47.664;9.166;2023-02-18T12:21:56;2.47;;;1.10;;
18754;SDS011;35061;47.664;9.166;2023-02-18T12:24:56;2.47;;;1.02;;
18754;SDS011;35061;47.664;9.166;2023-02-18T12:27:42;1.23;;;1.12;;
18754;SDS011;35061;47.664;9.166;2023-02-18T12:36:20;2.97;;;1.10;;
18754;SDS011;35061;47.664;9.166;2023-02-18T12:48:04;1.95;;;1.20;;
18754;SDS011;35061;47.664;9.166;2023-02-18T12:53:52;1.50;;;1.20;;
18754;SDS011;35061;47.664;9.166;2023-02-18T13:00:27;3.37;;;1.23;;
18754;SDS011;35061;47.664;9.166;2023-02-18T13:05:46;1.25;;;1.15;;
18754;SDS011;35061;47.664;9.166;2023-02-18T13:13:35;1.55;;;1.10;;
18754;SDS011;35061;47.664;9.166;2023-02-18T13:16:14;1.30;;;1.20;;
18754;SDS011;35061;47.664;9.166;2023-02-18T13:18:48;1.62;;;1.20;;
18754;SDS011;35061;47.664;9.166;2023-02-18T13:21:22;1.35;;;0.98;;
18754;SDS011;35061;47.664;9.166;2023-02-18T13:23:54;0.90;;;0.90;;
18754;SDS011;35061;47.664;9.166;2023-02-18T13:26:24;1.10;;;1.00;;
18754;SDS011;35061;47.664;9.166;2023-02-18T13:32:13;1.50;;;1.40;;
18754;SDS011;35061;47.664;9.166;2023-02-18T13:34:59;1.15;;;1.00;;
18754;SDS011;35061;47.664;9.166;2023-02-18T13:40:20;1.42;;;1.33;;
18754;SDS011;35061;47.664;9.166;2023-02-18T13:42:52;1.20;;;1.10;;
18754;SDS011;35061;47.664;9.166;2023-02-18T13:47:54;1.30;;;1.20;;
18754;SDS011;35061;47.664;9.166;2023-02-18T13:55:34;1.33;;;1.05;;
18754;SDS011;35061;47.664;9.166;2023-02-18T13:58:04;1.27;;;0.77;;
18754;SDS011;35061;47.664;9.166;2023-02-18T14:01:35;0.60;;;0.60;;
18754;SDS011;35061;47.664;9.166;2023-02-18T14:03:54;0.75;;;0.75;;
18754;SDS011;35061;47.664;9.166;2023-02-18T14:06:32;1.20;;;0.85;;
18754;SDS011;35061;47.664;9.166;2023-02-18T14:09:50;0.70;;;0.70;;
18754;SDS011;35061;47.664;9.166;2023-02-18T14:11:55;2.15;;;0.88;;
18754;SDS011;35061;47.664;9.166;2023-02-18T14:14:42;1.33;;;1.23;;
18754;SDS011;35061;47.664;9.166;2023-02-18T14:17:23;0.80;;;0.80;;
18754;SDS011;35061;47.664;9.166;2023-02-18T14:25:15;0.88;;;0.88;;
18754;SDS011;35061;47.664;9.166;2023-02-18T14:27:50;1.15;;;1.05;;
18754;SDS011;35061;47.664;9.166;2023-02-18T14:32:51;1.55;;;1.40;;
18754;SDS011;35061;47.664;9.166;2023-02-18T14:47:16;1.55;;;1.45;;
18754;SDS011;35061;47.664;9.166;2023-02-18T14:49:53;1.20;;;1.00;;
18754;SDS011;35061;47.664;9.166;2023-02-18T14:52:33;1.30;;;0.82;;
18754;SDS011;35061;47.664;9.166;2023-02-18T14:55:07;1.55;;;1.45;;
18754;SDS011;35061;47.664;9.166;2023-02-18T14:58:04;2.42;;;1.27;;
18754;SDS011;35061;47.664;9.166;2023-02-18T15:00:40;1.20;;;1.10;;
18754;SDS011;35061;47.664;9.166;2023-02-18T15:03:13;1.60;;;0.80;;
18754;SDS011;35061;47.664;9.166;2023-02-18T15:05:44;0.90;;;0.80;;
18754;SDS011;35061;47.664;9.166;2023-02-18T15:08:16;2.70;;;0.70;;
18754;SDS011;35061;47.664;9.166;2023-02-18T15:13:39;0.70;;;0.70;;
18754;SDS011;35061;47.664;9.166;2023-02-18T15:16:17;0.70;;;0.70;;
18754;SDS011;35061;47.664;9.166;2023-02-18T15:18:54;0.88;;;0.82;;
18754;SDS011;35061;47.664;9.166;2023-02-18T15:24:24;0.70;;;0.70;;
18754;SDS011;35061;47.664;9.166;2023-02-18T15:27:04;0.90;;;0.50;;
18754;SDS011;35061;47.664;9.166;2023-02-18T15:29:39;0.82;;;0.60;;
18754;SDS011;35061;47.664;9.166;2023-02-18T15:32:18;0.70;;;0.70;;
18754;SDS011;35061;47.664;9.166;2023-02-18T15:34:50;1.27;;;0.77;;
18754;SDS011;35061;47.664;9.166;2023-02-18T15:37:19;0.70;;;0.62;;
18754;SDS011;35061;47.664;9.166;2023-02-18T15:39:47;0.70;;;0.70;;
18754;SDS011;35061;47.664;9.166;2023-02-18T15:42:25;0.62;;;0.62;;
18754;SDS011;35061;47.664;9.166;2023-02-18T15:45:14;1.12;;;0.70;;
18754;SDS011;35061;47.664;9.166;2023-02-18T15:47:46;1.23;;;1.00;;
18754;SDS011;35061;47.664;9.166;2023-02-18T15:53:07;1.15;;;0.93;;
18754;SDS011;35061;47.664;9.166;2023-02-18T15:55:40;1.58;;;0.90;;
18754;SDS011;35061;47.664;9.166;2023-02-18T15:58:11;0.90;;;0.80;;
18754;SDS011;35061;47.664;9.166;2023-02-18T16:00:50;0.80;;;0.68;;
18754;SDS011;35061;47.664;9.166;2023-02-18T16:03:24;1.12;;;0.85;;
18754;SDS011;35061;47.664;9.166;2023-02-18T16:06:11;0.60;;;0.60;;
18754;SDS011;35061;47.664;9.166;2023-02-18T16:11:57;0.82;;;0.82;;
18754;SDS011;35061;47.664;9.166;2023-02-18T16:14:29;2.50;;;0.90;;
18754;SDS011;35061;47.664;9.166;2023-02-18T16:19:47;1.27;;;1.00;;
18754;SDS011;35061;47.664;9.166;2023-02-18T16:24:58;3.37;;;0.90;;
18754;SDS011;35061;47.664;9.166;2023-02-18T16:30:25;0.80;;;0.80;;
18754;SDS011;35061;47.664;9.166;2023-02-18T16:32:55;1.27;;;0.80;;
18754;SDS011;35061;47.664;9.166;2023-02-18T16:35:25;1.00;;;0.90;;
18754;SDS011;35061;47.664;9.166;2023-02-18T16:38:17;0.82;;;0.70;;
18754;SDS011;35061;47.664;9.166;2023-02-18T16:40:49;1.52;;;0.82;;
18754;SDS011;35061;47.664;9.166;2023-02-18T16:43:22;1.15;;;0.90;;
18754;SDS011;35061;47.664;9.166;2023-02-18T16:45:55;1.50;;;1.30;;
18754;SDS011;35061;47.664;9.166;2023-02-18T16:48:25;2.05;;;0.90;;
18754;SDS011;35061;47.664;9.166;2023-02-18T16:50:54;0.88;;;0.82;;
18754;SDS011;35061;47.664;9.166;2023-02-18T16:53:22;1.08;;;0.95;;
18754;SDS011;35061;47.664;9.166;2023-02-18T16:55:50;1.70;;;0.80;;
18754;SDS011;35061;47.664;9.166;2023-02-18T16:58:18;1.00;;;0.80;;
18754;SDS011;35061;47.664;9.166;2023-02-18T17:00:46;1.10;;;1.00;;
18754;SDS011;35061;47.664;9.166;2023-02-18T17:03:16;2.03;;;1.12;;
18754;SDS011;35061;47.664;9.166;2023-02-18T17:05:44;1.17;;;0.90;;
18754;SDS011;35061;47.664;9.166;2023-02-18T17:10:42;1.08;;;0.80;;
18754;SDS011;35061;47.664;9.166;2023-02-18T17:13:18;1.15;;;1.05;;
18754;SDS011;35061;47.664;9.166;2023-02-18T17:15:48;1.00;;;0.88;;
18754;SDS011;35061;47.664;9.166;2023-02-18T17:18:18;1.23;;;0.70;;
18754;SDS011;35061;47.664;9.166;2023-02-18T17:20:46;1.15;;;1.05;;
18754;SDS011;35061;47.664;9.166;2023-02-18T17:23:15;1.40;;;1.30;;
18754;SDS011;35061;47.664;9.166;2023-02-18T17:25:45;1.83;;;1.33;;
18754;SDS011;35061;47.664;9.166;2023-02-18T17:28:17;1.37;;;1.17;;
18754;SDS011;35061;47.664;9.166;2023-02-18T17:30:47;2.10;;;1.20;;
18754;SDS011;35061;47.664;9.166;2023-02-18T17:33:18;2.30;;;1.58;;
18754;SDS011;35061;47.664;9.166;2023-02-18T17:35:46;1.37;;;1.25;;
18754;SDS011;35061;47.664;9.166;2023-02-18T17:38:15;1.85;;;1.58;;
18754;SDS011;35061;47.664;9.166;2023-02-18T17:40:44;2.03;;;1.50;;
18754;SDS011;35061;47.664;9.166;2023-02-18T17:43:13;2.53;;;1.45;;
18754;SDS011;35061;47.664;9.166;2023-02-18T17:45:48;1.75;;;1.55;;
18754;SDS011;35061;47.664;9.166;2023-02-18T17:48:19;3.00;;;2.28;;
18754;SDS011;35061;47.664;9.166;2023-02-18T17:50:47;2.47;;;1.87;;
18754;SDS011;35061;47.664;9.166;2023-02-18T17:53:15;2.87;;;1.98;;
18754;SDS011;35061;47.664;9.166;2023-02-18T17:55:44;3.20;;;1.85;;
18754;SDS011;35061;47.664;9.166;2023-02-18T17:58:14;3.00;;;2.70;;
18754;SDS011;35061;47.664;9.166;2023-02-18T18:00:47;3.17;;;1.90;;
18754;SDS011;35061;47.664;9.166;2023-02-18T18:03:17;3.58;;;1.80;;
18754;SDS011;35061;47.664;9.166;2023-02-18T18:05:46;2.72;;;1.73;;